sensor_id;sensor_type;location;lat;lon;timestamp;temperature;humidity
2721;DHT22;1368;49.484;11.112;2024-01-30T00:00:59;1.80;99.90
2721;DHT22;1368;49.484;11.112;2024-01-30T00:03:24;1.90;99.90
2721;DHT22;1368;49.484;11.112;2024-01-30T00:05:50;1.90;99.90
2721;DHT22;1368;49.484;11.112;2024-01-30T00:08:15;1.90;99.90
2721;DHT22;1368;49.484;11.112;2024-01-30T00:10:41;2.00;99.90
2721;DHT22;1368;49.484;11.112;2024-01-30T00:13:06;2.10;99.90
2721;DHT22;1368;49.484;11.112;2024-01-30T00:15:32;2.20;99.90
2721;DHT22;1368;49.484;11.112;2024-01-30T00:17:58;2.10;99.90
2721;DHT22;1368;49.484;11.112;2024-01-30T00:20:23;2.10;99.90
2721;DHT22;1368;49.484;11.112;2024-01-30T00:22:49;2.00;99.90
2721;DHT22;1368;49.484;11.112;2024-01-30T00:25:14;2.00;99.90
2721;DHT22;1368;49.484;11.112;2024-01-30T00:27:40;1.80;99.90
2721;DHT22;1368;49.484;11.112;2024-01-30T00:30:06;1.70;99.90
2721;DHT22;1368;49.484;11.112;2024-01-30T00:32:32;1.70;99.90
2721;DHT22;1368;49.484;11.112;2024-01-30T00:34:57;1.50;99.90
2721;DHT22;1368;49.484;11.112;2024-01-30T00:37:23;1.40;99.90
2721;DHT22;1368;49.484;11.112;2024-01-30T00:39:49;1.20;99.90
2721;DHT22;1368;49.484;11.112;2024-01-30T00:42:14;1.10;99.90
2721;DHT22;1368;49.484;11.112;2024-01-30T00:44:40;1.10;99.90
2721;DHT22;1368;49.484;11.112;2024-01-30T00:47:06;1.10;99.90
2721;DHT22;1368;49.484;11.112;2024-01-30T00:49:33;1.10;99.90
2721;DHT22;1368;49.484;11.112;2024-01-30T00:51:58;1.10;99.90
2721;DHT22;1368;49.484;11.112;2024-01-30T00:54:24;1.10;99.90
2721;DHT22;1368;49.484;11.112;2024-01-30T00:56:49;1.10;99.90
2721;DHT22;1368;49.484;11.112;2024-01-30T00:59:15;1.20;99.90
2721;DHT22;1368;49.484;11.112;2024-01-30T01:01:40;1.10;99.90
2721;DHT22;1368;49.484;11.112;2024-01-30T01:04:06;1.10;99.90
2721;DHT22;1368;49.484;11.112;2024-01-30T01:06:32;1.10;99.90
2721;DHT22;1368;49.484;11.112;2024-01-30T01:08:58;1.10;99.90
2721;DHT22;1368;49.484;11.112;2024-01-30T01:11:23;1.20;99.90
2721;DHT22;1368;49.484;11.112;2024-01-30T01:13:49;1.40;99.90
2721;DHT22;1368;49.484;11.112;2024-01-30T01:16:14;1.50;99.90
2721;DHT22;1368;49.484;11.112;2024-01-30T01:18:40;1.70;99.90
2721;DHT22;1368;49.484;11.112;2024-01-30T01:21:05;2.00;99.90
2721;DHT22;1368;49.484;11.112;2024-01-30T01:23:31;1.90;99.90
2721;DHT22;1368;49.484;11.112;2024-01-30T01:25:57;1.80;99.90
2721;DHT22;1368;49.484;11.112;2024-01-30T01:28:25;1.60;99.90
2721;DHT22;1368;49.484;11.112;2024-01-30T01:30:50;1.50;99.90
2721;DHT22;1368;49.484;11.112;2024-01-30T01:33:16;1.50;99.90
2721;DHT22;1368;49.484;11.112;2024-01-30T01:35:42;1.50;99.90
2721;DHT22;1368;49.484;11.112;2024-01-30T01:38:08;1.60;99.90
2721;DHT22;1368;49.484;11.112;2024-01-30T01:40:34;1.70;99.90
2721;DHT22;1368;49.484;11.112;2024-01-30T01:43:03;1.90;99.90
2721;DHT22;1368;49.484;11.112;2024-01-30T01:45:30;2.10;99.90
2721;DHT22;1368;49.484;11.112;2024-01-30T01:47:56;2.30;99.90
2721;DHT22;1368;49.484;11.112;2024-01-30T01:50:21;2.50;99.90
2721;DHT22;1368;49.484;11.112;2024-01-30T01:52:48;2.60;99.90
2721;DHT22;1368;49.484;11.112;2024-01-30T01:55:16;2.20;99.90
2721;DHT22;1368;49.484;11.112;2024-01-30T01:57:44;1.90;99.90
2721;DHT22;1368;49.484;11.112;2024-01-30T02:00:10;1.60;99.90
2721;DHT22;1368;49.484;11.112;2024-01-30T02:02:37;1.50;99.90
2721;DHT22;1368;49.484;11.112;2024-01-30T02:05:04;1.20;99.90
2721;DHT22;1368;49.484;11.112;2024-01-30T02:07:30;1.10;99.90
2721;DHT22;1368;49.484;11.112;2024-01-30T02:09:56;1.00;99.90
2721;DHT22;1368;49.484;11.112;2024-01-30T02:12:21;0.90;99.90
2721;DHT22;1368;49.484;11.112;2024-01-30T02:14:48;0.90;99.90
2721;DHT22;1368;49.484;11.112;2024-01-30T02:17:17;0.90;99.90
2721;DHT22;1368;49.484;11.112;2024-01-30T02:19:43;1.00;99.90
2721;DHT22;1368;49.484;11.112;2024-01-30T02:22:09;1.30;99.90
2721;DHT22;1368;49.484;11.112;2024-01-30T02:24:35;1.50;99.90
2721;DHT22;1368;49.484;11.112;2024-01-30T02:27:01;1.90;99.90
2721;DHT22;1368;49.484;11.112;2024-01-30T02:29:26;2.10;99.90
2721;DHT22;1368;49.484;11.112;2024-01-30T02:31:52;2.20;99.90
2721;DHT22;1368;49.484;11.112;2024-01-30T02:34:18;2.40;99.90
2721;DHT22;1368;49.484;11.112;2024-01-30T02:36:45;3.40;99.90
2721;DHT22;1368;49.484;11.112;2024-01-30T02:39:10;2.70;99.90
2721;DHT22;1368;49.484;11.112;2024-01-30T02:41:36;2.80;99.90
2721;DHT22;1368;49.484;11.112;2024-01-30T02:44:03;2.70;99.90
2721;DHT22;1368;49.484;11.112;2024-01-30T02:46:29;3.40;99.90
2721;DHT22;1368;49.484;11.112;2024-01-30T02:48:54;2.50;99.90
2721;DHT22;1368;49.484;11.112;2024-01-30T02:51:20;2.30;99.90
2721;DHT22;1368;49.484;11.112;2024-01-30T02:53:45;1.90;99.90
2721;DHT22;1368;49.484;11.112;2024-01-30T02:56:11;2.00;99.90
2721;DHT22;1368;49.484;11.112;2024-01-30T02:58:39;2.20;99.90
2721;DHT22;1368;49.484;11.112;2024-01-30T03:01:06;2.30;99.90
2721;DHT22;1368;49.484;11.112;2024-01-30T03:03:31;2.40;99.90
2721;DHT22;1368;49.484;11.112;2024-01-30T03:05:57;2.50;99.90
2721;DHT22;1368;49.484;11.112;2024-01-30T03:08:22;2.40;99.90
2721;DHT22;1368;49.484;11.112;2024-01-30T03:10:48;2.40;99.90
2721;DHT22;1368;49.484;11.112;2024-01-30T03:13:14;2.30;99.90
2721;DHT22;1368;49.484;11.112;2024-01-30T03:15:39;2.20;99.90
2721;DHT22;1368;49.484;11.112;2024-01-30T03:18:05;2.30;99.90
2721;DHT22;1368;49.484;11.112;2024-01-30T03:20:31;2.30;99.90
2721;DHT22;1368;49.484;11.112;2024-01-30T03:22:57;2.40;99.90
2721;DHT22;1368;49.484;11.112;2024-01-30T03:25:22;2.40;99.90
2721;DHT22;1368;49.484;11.112;2024-01-30T03:27:49;2.40;99.90
2721;DHT22;1368;49.484;11.112;2024-01-30T03:30:14;2.40;99.90
2721;DHT22;1368;49.484;11.112;2024-01-30T03:32:40;2.40;99.90
2721;DHT22;1368;49.484;11.112;2024-01-30T03:35:06;2.30;99.90
2721;DHT22;1368;49.484;11.112;2024-01-30T03:37:31;2.30;99.90
2721;DHT22;1368;49.484;11.112;2024-01-30T03:39:57;2.30;99.90
2721;DHT22;1368;49.484;11.112;2024-01-30T03:42:22;2.30;99.90
2721;DHT22;1368;49.484;11.112;2024-01-30T03:44:48;2.40;99.90
2721;DHT22;1368;49.484;11.112;2024-01-30T03:47:14;2.40;99.90
2721;DHT22;1368;49.484;11.112;2024-01-30T03:49:40;2.40;99.90
2721;DHT22;1368;49.484;11.112;2024-01-30T03:52:05;2.40;99.90
2721;DHT22;1368;49.484;11.112;2024-01-30T03:54:31;2.50;99.90
2721;DHT22;1368;49.484;11.112;2024-01-30T03:56:56;2.50;99.90
2721;DHT22;1368;49.484;11.112;2024-01-30T03:59:22;2.30;99.90
2721;DHT22;1368;49.484;11.112;2024-01-30T04:01:50;2.30;99.90
2721;DHT22;1368;49.484;11.112;2024-01-30T04:04:17;2.40;99.90
2721;DHT22;1368;49.484;11.112;2024-01-30T04:06:44;2.40;99.90
2721;DHT22;1368;49.484;11.112;2024-01-30T04:09:09;2.50;99.90
2721;DHT22;1368;49.484;11.112;2024-01-30T04:11:35;2.50;99.90
2721;DHT22;1368;49.484;11.112;2024-01-30T04:14:01;2.40;99.90
2721;DHT22;1368;49.484;11.112;2024-01-30T04:16:26;2.50;99.90
2721;DHT22;1368;49.484;11.112;2024-01-30T04:18:52;2.50;99.90
2721;DHT22;1368;49.484;11.112;2024-01-30T04:21:18;2.50;99.90
2721;DHT22;1368;49.484;11.112;2024-01-30T04:23:43;2.50;99.90
2721;DHT22;1368;49.484;11.112;2024-01-30T04:26:09;2.50;99.90
2721;DHT22;1368;49.484;11.112;2024-01-30T04:28:34;2.20;99.90
2721;DHT22;1368;49.484;11.112;2024-01-30T04:31:00;2.20;99.90
2721;DHT22;1368;49.484;11.112;2024-01-30T04:33:25;2.30;99.90
2721;DHT22;1368;49.484;11.112;2024-01-30T04:35:51;2.30;99.90
2721;DHT22;1368;49.484;11.112;2024-01-30T04:38:17;2.40;99.90
2721;DHT22;1368;49.484;11.112;2024-01-30T04:40:43;2.50;99.90
2721;DHT22;1368;49.484;11.112;2024-01-30T04:43:08;2.60;99.90
2721;DHT22;1368;49.484;11.112;2024-01-30T04:45:35;2.60;99.90
2721;DHT22;1368;49.484;11.112;2024-01-30T04:48:00;2.60;99.90
2721;DHT22;1368;49.484;11.112;2024-01-30T04:50:26;2.50;99.90
2721;DHT22;1368;49.484;11.112;2024-01-30T04:52:52;2.50;99.90
2721;DHT22;1368;49.484;11.112;2024-01-30T04:55:17;2.20;99.90
2721;DHT22;1368;49.484;11.112;2024-01-30T04:57:43;2.10;99.90
2721;DHT22;1368;49.484;11.112;2024-01-30T05:00:09;2.10;99.90
2721;DHT22;1368;49.484;11.112;2024-01-30T05:02:35;2.20;99.90
2721;DHT22;1368;49.484;11.112;2024-01-30T05:05:00;2.10;99.90
2721;DHT22;1368;49.484;11.112;2024-01-30T05:07:26;1.60;99.90
2721;DHT22;1368;49.484;11.112;2024-01-30T05:09:51;1.40;99.90
2721;DHT22;1368;49.484;11.112;2024-01-30T05:12:17;1.40;99.90
2721;DHT22;1368;49.484;11.112;2024-01-30T05:14:43;1.50;99.90
2721;DHT22;1368;49.484;11.112;2024-01-30T05:17:08;1.80;99.90
2721;DHT22;1368;49.484;11.112;2024-01-30T05:19:35;2.10;99.90
2721;DHT22;1368;49.484;11.112;2024-01-30T05:22:01;2.10;99.90
2721;DHT22;1368;49.484;11.112;2024-01-30T05:24:26;2.10;99.90
2721;DHT22;1368;49.484;11.112;2024-01-30T05:26:52;2.20;99.90
2721;DHT22;1368;49.484;11.112;2024-01-30T05:29:18;2.40;99.90
2721;DHT22;1368;49.484;11.112;2024-01-30T05:31:43;2.50;99.90
2721;DHT22;1368;49.484;11.112;2024-01-30T05:34:09;2.60;99.90
2721;DHT22;1368;49.484;11.112;2024-01-30T05:36:35;2.60;99.90
2721;DHT22;1368;49.484;11.112;2024-01-30T05:39:00;2.50;99.90
2721;DHT22;1368;49.484;11.112;2024-01-30T05:41:26;2.40;99.90
2721;DHT22;1368;49.484;11.112;2024-01-30T05:43:54;2.50;99.90
2721;DHT22;1368;49.484;11.112;2024-01-30T05:46:20;2.60;99.90
2721;DHT22;1368;49.484;11.112;2024-01-30T05:48:45;2.80;99.90
2721;DHT22;1368;49.484;11.112;2024-01-30T05:51:11;2.90;99.90
2721;DHT22;1368;49.484;11.112;2024-01-30T05:53:36;3.00;99.90
2721;DHT22;1368;49.484;11.112;2024-01-30T05:56:02;3.00;99.90
2721;DHT22;1368;49.484;11.112;2024-01-30T05:58:28;3.00;99.90
2721;DHT22;1368;49.484;11.112;2024-01-30T06:00:54;3.00;99.90
2721;DHT22;1368;49.484;11.112;2024-01-30T06:03:19;3.10;99.90
2721;DHT22;1368;49.484;11.112;2024-01-30T06:05:45;3.10;99.90
2721;DHT22;1368;49.484;11.112;2024-01-30T06:08:11;2.70;99.90
2721;DHT22;1368;49.484;11.112;2024-01-30T06:10:37;2.60;99.90
2721;DHT22;1368;49.484;11.112;2024-01-30T06:13:02;2.20;99.90
2721;DHT22;1368;49.484;11.112;2024-01-30T06:15:28;1.90;99.90
2721;DHT22;1368;49.484;11.112;2024-01-30T06:17:55;1.80;99.90
2721;DHT22;1368;49.484;11.112;2024-01-30T06:20:21;1.70;99.90
2721;DHT22;1368;49.484;11.112;2024-01-30T06:22:46;1.60;99.90
2721;DHT22;1368;49.484;11.112;2024-01-30T06:25:12;1.60;99.90
2721;DHT22;1368;49.484;11.112;2024-01-30T06:27:37;1.50;99.90
2721;DHT22;1368;49.484;11.112;2024-01-30T06:30:04;1.40;99.90
2721;DHT22;1368;49.484;11.112;2024-01-30T06:32:30;1.30;99.90
2721;DHT22;1368;49.484;11.112;2024-01-30T06:35:02;1.50;99.90
2721;DHT22;1368;49.484;11.112;2024-01-30T06:37:28;1.50;99.90
2721;DHT22;1368;49.484;11.112;2024-01-30T06:39:54;1.60;99.90
2721;DHT22;1368;49.484;11.112;2024-01-30T06:42:19;1.80;99.90
2721;DHT22;1368;49.484;11.112;2024-01-30T06:44:45;2.10;99.90
2721;DHT22;1368;49.484;11.112;2024-01-30T06:47:11;2.10;99.90
2721;DHT22;1368;49.484;11.112;2024-01-30T06:49:36;2.10;99.90
2721;DHT22;1368;49.484;11.112;2024-01-30T06:52:07;2.00;99.90
2721;DHT22;1368;49.484;11.112;2024-01-30T06:54:33;2.10;99.90
2721;DHT22;1368;49.484;11.112;2024-01-30T06:56:59;2.10;99.90
2721;DHT22;1368;49.484;11.112;2024-01-30T06:59:25;2.00;99.90
2721;DHT22;1368;49.484;11.112;2024-01-30T07:01:51;1.90;99.90
2721;DHT22;1368;49.484;11.112;2024-01-30T07:04:16;2.10;99.90
2721;DHT22;1368;49.484;11.112;2024-01-30T07:06:43;2.00;99.90
2721;DHT22;1368;49.484;11.112;2024-01-30T07:09:09;2.20;99.90
2721;DHT22;1368;49.484;11.112;2024-01-30T07:11:34;2.20;99.90
2721;DHT22;1368;49.484;11.112;2024-01-30T07:14:00;2.30;99.90
2721;DHT22;1368;49.484;11.112;2024-01-30T07:16:29;2.50;99.90
2721;DHT22;1368;49.484;11.112;2024-01-30T07:18:54;2.50;99.90
2721;DHT22;1368;49.484;11.112;2024-01-30T07:21:20;2.50;99.90
2721;DHT22;1368;49.484;11.112;2024-01-30T07:23:47;2.60;99.90
2721;DHT22;1368;49.484;11.112;2024-01-30T07:26:12;2.70;99.90
2721;DHT22;1368;49.484;11.112;2024-01-30T07:28:38;2.80;99.90
2721;DHT22;1368;49.484;11.112;2024-01-30T07:31:03;2.90;99.90
2721;DHT22;1368;49.484;11.112;2024-01-30T07:33:29;2.90;99.90
2721;DHT22;1368;49.484;11.112;2024-01-30T07:35:55;3.00;99.90
2721;DHT22;1368;49.484;11.112;2024-01-30T07:38:20;3.10;99.90
2721;DHT22;1368;49.484;11.112;2024-01-30T07:40:46;3.20;99.90
2721;DHT22;1368;49.484;11.112;2024-01-30T07:43:11;3.30;99.90
2721;DHT22;1368;49.484;11.112;2024-01-30T07:45:37;3.30;99.90
2721;DHT22;1368;49.484;11.112;2024-01-30T07:48:06;3.20;99.90
2721;DHT22;1368;49.484;11.112;2024-01-30T07:50:32;3.20;99.90
2721;DHT22;1368;49.484;11.112;2024-01-30T07:53:00;3.50;99.90
2721;DHT22;1368;49.484;11.112;2024-01-30T07:55:26;3.80;99.90
2721;DHT22;1368;49.484;11.112;2024-01-30T07:57:54;4.00;99.90
2721;DHT22;1368;49.484;11.112;2024-01-30T08:00:21;4.00;99.90
2721;DHT22;1368;49.484;11.112;2024-01-30T08:02:47;4.10;99.90
2721;DHT22;1368;49.484;11.112;2024-01-30T08:05:13;4.30;99.90
2721;DHT22;1368;49.484;11.112;2024-01-30T08:07:43;4.40;99.90
2721;DHT22;1368;49.484;11.112;2024-01-30T08:10:10;4.40;99.90
2721;DHT22;1368;49.484;11.112;2024-01-30T08:12:36;4.70;99.90
2721;DHT22;1368;49.484;11.112;2024-01-30T08:15:02;5.00;99.90
2721;DHT22;1368;49.484;11.112;2024-01-30T08:17:28;5.10;99.90
2721;DHT22;1368;49.484;11.112;2024-01-30T08:19:54;5.30;99.90
2721;DHT22;1368;49.484;11.112;2024-01-30T08:22:19;5.40;99.90
2721;DHT22;1368;49.484;11.112;2024-01-30T08:24:45;5.60;99.90
2721;DHT22;1368;49.484;11.112;2024-01-30T08:27:10;5.60;99.90
2721;DHT22;1368;49.484;11.112;2024-01-30T08:29:37;5.70;99.90
2721;DHT22;1368;49.484;11.112;2024-01-30T08:32:04;5.90;99.90
2721;DHT22;1368;49.484;11.112;2024-01-30T08:34:30;6.00;99.90
2721;DHT22;1368;49.484;11.112;2024-01-30T08:36:55;5.70;99.90
2721;DHT22;1368;49.484;11.112;2024-01-30T08:39:21;5.40;99.90
2721;DHT22;1368;49.484;11.112;2024-01-30T08:41:46;5.40;99.90
2721;DHT22;1368;49.484;11.112;2024-01-30T08:44:12;5.00;99.90
2721;DHT22;1368;49.484;11.112;2024-01-30T08:46:37;5.00;99.90
2721;DHT22;1368;49.484;11.112;2024-01-30T08:49:03;5.00;99.90
2721;DHT22;1368;49.484;11.112;2024-01-30T08:51:31;5.00;99.90
2721;DHT22;1368;49.484;11.112;2024-01-30T08:53:57;4.70;99.90
2721;DHT22;1368;49.484;11.112;2024-01-30T08:56:23;4.90;99.90
2721;DHT22;1368;49.484;11.112;2024-01-30T08:58:48;5.10;99.90
2721;DHT22;1368;49.484;11.112;2024-01-30T09:01:14;5.10;99.90
2721;DHT22;1368;49.484;11.112;2024-01-30T09:03:40;4.90;99.90
2721;DHT22;1368;49.484;11.112;2024-01-30T09:06:12;5.20;99.90
2721;DHT22;1368;49.484;11.112;2024-01-30T09:08:38;5.10;99.90
2721;DHT22;1368;49.484;11.112;2024-01-30T09:11:12;5.00;99.90
2721;DHT22;1368;49.484;11.112;2024-01-30T09:13:38;5.00;99.90
2721;DHT22;1368;49.484;11.112;2024-01-30T09:16:04;5.10;99.90
2721;DHT22;1368;49.484;11.112;2024-01-30T09:18:29;5.30;99.90
2721;DHT22;1368;49.484;11.112;2024-01-30T09:20:55;5.50;99.90
2721;DHT22;1368;49.484;11.112;2024-01-30T09:23:20;5.70;99.90
2721;DHT22;1368;49.484;11.112;2024-01-30T09:25:47;6.00;99.90
2721;DHT22;1368;49.484;11.112;2024-01-30T09:28:12;6.20;99.90
2721;DHT22;1368;49.484;11.112;2024-01-30T09:30:38;6.30;99.90
2721;DHT22;1368;49.484;11.112;2024-01-30T09:33:04;6.30;99.90
2721;DHT22;1368;49.484;11.112;2024-01-30T09:35:30;6.60;99.90
2721;DHT22;1368;49.484;11.112;2024-01-30T09:37:55;6.90;99.90
2721;DHT22;1368;49.484;11.112;2024-01-30T09:40:22;7.10;99.90
2721;DHT22;1368;49.484;11.112;2024-01-30T09:42:50;7.20;99.90
2721;DHT22;1368;49.484;11.112;2024-01-30T09:45:17;7.50;99.90
2721;DHT22;1368;49.484;11.112;2024-01-30T09:47:44;7.70;99.90
2721;DHT22;1368;49.484;11.112;2024-01-30T09:50:12;8.00;99.90
2721;DHT22;1368;49.484;11.112;2024-01-30T09:52:38;8.40;99.90
2721;DHT22;1368;49.484;11.112;2024-01-30T09:55:05;8.50;99.90
2721;DHT22;1368;49.484;11.112;2024-01-30T09:57:31;8.40;99.90
2721;DHT22;1368;49.484;11.112;2024-01-30T09:59:57;8.40;99.90
2721;DHT22;1368;49.484;11.112;2024-01-30T10:02:23;8.50;99.90
2721;DHT22;1368;49.484;11.112;2024-01-30T10:04:49;8.30;99.90
2721;DHT22;1368;49.484;11.112;2024-01-30T10:07:16;8.20;99.90
2721;DHT22;1368;49.484;11.112;2024-01-30T10:09:41;8.80;99.90
2721;DHT22;1368;49.484;11.112;2024-01-30T10:12:08;8.00;99.90
2721;DHT22;1368;49.484;11.112;2024-01-30T10:14:37;8.20;99.90
2721;DHT22;1368;49.484;11.112;2024-01-30T10:17:03;8.50;99.90
2721;DHT22;1368;49.484;11.112;2024-01-30T10:19:29;8.40;99.90
2721;DHT22;1368;49.484;11.112;2024-01-30T10:21:55;8.50;99.90
2721;DHT22;1368;49.484;11.112;2024-01-30T10:24:24;8.80;99.90
2721;DHT22;1368;49.484;11.112;2024-01-30T10:26:50;8.80;99.90
2721;DHT22;1368;49.484;11.112;2024-01-30T10:29:16;8.70;99.90
2721;DHT22;1368;49.484;11.112;2024-01-30T10:31:42;9.10;99.90
2721;DHT22;1368;49.484;11.112;2024-01-30T10:34:08;9.50;99.90
2721;DHT22;1368;49.484;11.112;2024-01-30T10:36:41;9.80;99.90
2721;DHT22;1368;49.484;11.112;2024-01-30T10:39:08;10.00;99.90
2721;DHT22;1368;49.484;11.112;2024-01-30T10:41:42;10.20;99.90
2721;DHT22;1368;49.484;11.112;2024-01-30T10:44:09;10.20;99.90
2721;DHT22;1368;49.484;11.112;2024-01-30T10:46:35;10.40;99.90
2721;DHT22;1368;49.484;11.112;2024-01-30T10:49:03;10.40;99.70
2721;DHT22;1368;49.484;11.112;2024-01-30T10:51:30;10.20;99.90
2721;DHT22;1368;49.484;11.112;2024-01-30T10:53:56;9.70;99.90
2721;DHT22;1368;49.484;11.112;2024-01-30T10:56:23;9.50;99.90
2721;DHT22;1368;49.484;11.112;2024-01-30T10:58:52;9.50;99.90
2721;DHT22;1368;49.484;11.112;2024-01-30T11:01:21;9.60;99.90
2721;DHT22;1368;49.484;11.112;2024-01-30T11:03:53;10.00;99.90
2721;DHT22;1368;49.484;11.112;2024-01-30T11:06:23;10.20;99.90
2721;DHT22;1368;49.484;11.112;2024-01-30T11:09:02;10.30;99.90
2721;DHT22;1368;49.484;11.112;2024-01-30T11:11:29;10.40;99.90
2721;DHT22;1368;49.484;11.112;2024-01-30T11:13:54;10.60;99.90
2721;DHT22;1368;49.484;11.112;2024-01-30T11:16:20;10.50;99.90
2721;DHT22;1368;49.484;11.112;2024-01-30T11:18:50;10.60;99.90
2721;DHT22;1368;49.484;11.112;2024-01-30T11:21:16;10.60;99.90
2721;DHT22;1368;49.484;11.112;2024-01-30T11:23:42;10.80;99.60
2721;DHT22;1368;49.484;11.112;2024-01-30T11:26:10;10.90;99.60
2721;DHT22;1368;49.484;11.112;2024-01-30T11:28:37;10.70;99.80
2721;DHT22;1368;49.484;11.112;2024-01-30T11:31:06;10.80;99.90
2721;DHT22;1368;49.484;11.112;2024-01-30T11:33:32;11.10;99.50
2721;DHT22;1368;49.484;11.112;2024-01-30T11:35:59;11.30;99.30
2721;DHT22;1368;49.484;11.112;2024-01-30T11:38:27;11.40;99.30
2721;DHT22;1368;49.484;11.112;2024-01-30T11:40:56;11.40;99.00
2721;DHT22;1368;49.484;11.112;2024-01-30T11:43:22;11.40;99.30
2721;DHT22;1368;49.484;11.112;2024-01-30T11:45:49;11.70;98.80
2721;DHT22;1368;49.484;11.112;2024-01-30T11:48:14;11.80;98.40
2721;DHT22;1368;49.484;11.112;2024-01-30T11:50:40;11.30;99.10
2721;DHT22;1368;49.484;11.112;2024-01-30T11:53:06;10.90;99.60
2721;DHT22;1368;49.484;11.112;2024-01-30T11:55:32;10.70;99.80
2721;DHT22;1368;49.484;11.112;2024-01-30T11:57:58;10.70;99.90
2721;DHT22;1368;49.484;11.112;2024-01-30T12:00:24;10.70;99.90
2721;DHT22;1368;49.484;11.112;2024-01-30T12:02:51;11.20;99.90
2721;DHT22;1368;49.484;11.112;2024-01-30T12:05:18;11.50;99.50
2721;DHT22;1368;49.484;11.112;2024-01-30T12:07:44;11.90;99.10
2721;DHT22;1368;49.484;11.112;2024-01-30T12:10:11;11.80;98.70
2721;DHT22;1368;49.484;11.112;2024-01-30T12:12:41;11.90;98.80
2721;DHT22;1368;49.484;11.112;2024-01-30T12:15:07;11.60;98.80
2721;DHT22;1368;49.484;11.112;2024-01-30T12:17:34;11.80;98.80
2721;DHT22;1368;49.484;11.112;2024-01-30T12:20:13;12.00;98.50
2721;DHT22;1368;49.484;11.112;2024-01-30T12:22:47;12.10;98.20
2721;DHT22;1368;49.484;11.112;2024-01-30T12:25:18;12.00;98.20
2721;DHT22;1368;49.484;11.112;2024-01-30T12:27:47;11.90;98.40
2721;DHT22;1368;49.484;11.112;2024-01-30T12:30:16;12.00;98.50
2721;DHT22;1368;49.484;11.112;2024-01-30T12:32:45;11.80;98.50
2721;DHT22;1368;49.484;11.112;2024-01-30T12:35:13;11.80;98.40
2721;DHT22;1368;49.484;11.112;2024-01-30T12:37:39;12.00;98.40
2721;DHT22;1368;49.484;11.112;2024-01-30T12:40:05;12.30;98.60
2721;DHT22;1368;49.484;11.112;2024-01-30T12:42:35;12.00;98.50
2721;DHT22;1368;49.484;11.112;2024-01-30T12:45:03;12.10;98.30
2721;DHT22;1368;49.484;11.112;2024-01-30T12:47:30;12.10;98.60
2721;DHT22;1368;49.484;11.112;2024-01-30T12:49:55;11.80;98.80
2721;DHT22;1368;49.484;11.112;2024-01-30T12:52:22;11.90;98.90
2721;DHT22;1368;49.484;11.112;2024-01-30T12:54:48;12.10;99.20
2721;DHT22;1368;49.484;11.112;2024-01-30T12:57:14;12.20;98.50
2721;DHT22;1368;49.484;11.112;2024-01-30T12:59:40;12.20;98.50
2721;DHT22;1368;49.484;11.112;2024-01-30T13:02:05;12.20;98.50
2721;DHT22;1368;49.484;11.112;2024-01-30T13:04:32;12.00;98.80
2721;DHT22;1368;49.484;11.112;2024-01-30T13:06:58;12.10;98.60
2721;DHT22;1368;49.484;11.112;2024-01-30T13:09:24;12.40;98.80
2721;DHT22;1368;49.484;11.112;2024-01-30T13:11:50;12.00;98.90
2721;DHT22;1368;49.484;11.112;2024-01-30T13:14:16;11.80;99.20
2721;DHT22;1368;49.484;11.112;2024-01-30T13:16:42;11.80;99.20
2721;DHT22;1368;49.484;11.112;2024-01-30T13:19:07;12.10;99.40
2721;DHT22;1368;49.484;11.112;2024-01-30T13:21:33;12.10;98.90
2721;DHT22;1368;49.484;11.112;2024-01-30T13:23:58;12.30;99.20
2721;DHT22;1368;49.484;11.112;2024-01-30T13:26:24;11.90;98.80
2721;DHT22;1368;49.484;11.112;2024-01-30T13:28:49;11.80;99.10
2721;DHT22;1368;49.484;11.112;2024-01-30T13:31:15;11.70;99.50
2721;DHT22;1368;49.484;11.112;2024-01-30T13:33:41;11.60;99.40
2721;DHT22;1368;49.484;11.112;2024-01-30T13:36:10;11.60;99.60
2721;DHT22;1368;49.484;11.112;2024-01-30T13:38:36;11.40;99.60
2721;DHT22;1368;49.484;11.112;2024-01-30T13:41:02;11.10;99.90
2721;DHT22;1368;49.484;11.112;2024-01-30T13:43:28;11.40;99.90
2721;DHT22;1368;49.484;11.112;2024-01-30T13:45:54;11.10;99.90
2721;DHT22;1368;49.484;11.112;2024-01-30T13:48:19;11.10;99.90
2721;DHT22;1368;49.484;11.112;2024-01-30T13:50:45;11.20;99.90
2721;DHT22;1368;49.484;11.112;2024-01-30T13:53:11;11.30;99.90
2721;DHT22;1368;49.484;11.112;2024-01-30T13:55:37;11.50;99.90
2721;DHT22;1368;49.484;11.112;2024-01-30T13:58:03;11.60;99.90
2721;DHT22;1368;49.484;11.112;2024-01-30T14:00:29;11.70;99.90
2721;DHT22;1368;49.484;11.112;2024-01-30T14:02:54;11.30;99.90
2721;DHT22;1368;49.484;11.112;2024-01-30T14:05:21;11.40;99.90
2721;DHT22;1368;49.484;11.112;2024-01-30T14:07:50;11.60;99.90
2721;DHT22;1368;49.484;11.112;2024-01-30T14:10:16;11.50;99.90
2721;DHT22;1368;49.484;11.112;2024-01-30T14:12:42;11.60;99.90
2721;DHT22;1368;49.484;11.112;2024-01-30T14:15:09;12.00;99.90
2721;DHT22;1368;49.484;11.112;2024-01-30T14:17:38;11.90;99.90
2721;DHT22;1368;49.484;11.112;2024-01-30T14:20:04;11.90;99.90
2721;DHT22;1368;49.484;11.112;2024-01-30T14:22:30;11.80;99.90
2721;DHT22;1368;49.484;11.112;2024-01-30T14:24:56;12.00;99.90
2721;DHT22;1368;49.484;11.112;2024-01-30T14:27:22;12.30;99.90
2721;DHT22;1368;49.484;11.112;2024-01-30T14:29:47;12.50;99.90
2721;DHT22;1368;49.484;11.112;2024-01-30T14:32:13;12.70;99.60
2721;DHT22;1368;49.484;11.112;2024-01-30T14:34:38;12.90;99.30
2721;DHT22;1368;49.484;11.112;2024-01-30T14:37:04;13.30;99.20
2721;DHT22;1368;49.484;11.112;2024-01-30T14:39:30;12.80;99.00
2721;DHT22;1368;49.484;11.112;2024-01-30T14:41:55;12.50;99.50
2721;DHT22;1368;49.484;11.112;2024-01-30T14:44:21;13.00;99.50
2721;DHT22;1368;49.484;11.112;2024-01-30T14:46:46;12.80;99.30
2721;DHT22;1368;49.484;11.112;2024-01-30T14:49:12;12.70;99.30
2721;DHT22;1368;49.484;11.112;2024-01-30T14:51:38;12.80;99.20
2721;DHT22;1368;49.484;11.112;2024-01-30T14:54:03;12.90;99.00
2721;DHT22;1368;49.484;11.112;2024-01-30T14:56:29;13.00;98.90
2721;DHT22;1368;49.484;11.112;2024-01-30T14:58:54;13.00;98.80
2721;DHT22;1368;49.484;11.112;2024-01-30T15:01:21;13.20;99.00
2721;DHT22;1368;49.484;11.112;2024-01-30T15:03:46;12.80;99.10
2721;DHT22;1368;49.484;11.112;2024-01-30T15:06:12;12.80;99.00
2721;DHT22;1368;49.484;11.112;2024-01-30T15:08:38;12.80;99.40
2721;DHT22;1368;49.484;11.112;2024-01-30T15:11:04;12.80;99.30
2721;DHT22;1368;49.484;11.112;2024-01-30T15:13:30;12.80;99.10
2721;DHT22;1368;49.484;11.112;2024-01-30T15:15:56;12.80;99.10
2721;DHT22;1368;49.484;11.112;2024-01-30T15:18:21;12.50;99.30
2721;DHT22;1368;49.484;11.112;2024-01-30T15:20:47;12.30;99.60
2721;DHT22;1368;49.484;11.112;2024-01-30T15:23:12;12.00;99.90
2721;DHT22;1368;49.484;11.112;2024-01-30T15:25:39;12.00;99.90
2721;DHT22;1368;49.484;11.112;2024-01-30T15:28:05;11.70;99.90
2721;DHT22;1368;49.484;11.112;2024-01-30T15:30:30;11.70;99.90
2721;DHT22;1368;49.484;11.112;2024-01-30T15:32:56;11.60;99.90
2721;DHT22;1368;49.484;11.112;2024-01-30T15:35:21;11.40;99.90
2721;DHT22;1368;49.484;11.112;2024-01-30T15:37:47;11.20;99.90
2721;DHT22;1368;49.484;11.112;2024-01-30T15:40:12;11.00;99.90
2721;DHT22;1368;49.484;11.112;2024-01-30T15:42:38;10.90;99.90
2721;DHT22;1368;49.484;11.112;2024-01-30T15:45:04;10.60;99.90
2721;DHT22;1368;49.484;11.112;2024-01-30T15:47:30;10.60;99.90
2721;DHT22;1368;49.484;11.112;2024-01-30T15:49:57;10.40;99.90